Terminal Aerodrome Forecast
Issued by NWS Wakefield, VA

Home | Current Version | Previous Version | Text Only | Print | Product List | Glossary On
Versions: 1 2 3 4 5 6 7 8 9 10 11 12 13 14 15 16 17 18 19 20 21 22
000
FTUS41 KAKQ 210527
TAFRIC
TAF
KRIC 210527Z 2106/2206 22014KT P6SM SCT040 BKN150
     FM210900 27011KT P6SM SCT100 BKN250
     FM211300 30015G22KT P6SM SCT040
     FM211900 26014G21KT P6SM SCT250
     FM212300 24005KT P6SM FEW250=

USA.gov is the U.S. government's official web portal to all federal, state and local government web resources and services.